Time;durP1;ratioP1;P1;durP2;ratioP2;P2;SDS_P1;SDS_P2;PMS_P1;PMS_P2;Temp;Humidity;BMP_temperature;BMP_pressure;BME280_temperature;BME280_humidity;BME280_pressure;Samples;Min_cycle;Max_cycle;Signal;HPM_P1;HPM_P2
2022/12/17 13:05:52;;;;;;;;;;;4.20;99.90;;;;;;5040420;28;19947;-60
2022/12/17 13:08:22;;;;;;;;;;;4.30;99.90;;;;;;5073378;28;19952;-61
2022/12/17 13:10:48;;;;;;;;;;;4.30;99.90;;;;;;5041404;28;20296;-61
2022/12/17 13:13:18;;;;;;;;;;;4.60;99.90;;;;;;5057624;28;19919;-60
2022/12/17 13:15:50;;;;;;;;;;;4.90;99.90;;;;;;5024638;28;20007;-59
2022/12/17 13:18:24;;;;;;;;;;;5.10;99.90;;;;;;5059929;28;19908;-59
2022/12/17 13:20:58;;;;;;;;;;;4.90;99.90;;;;;;5023447;28;20490;-59
2022/12/17 13:23:26;;;;;;;;;;;4.90;99.90;;;;;;5006097;28;19924;-59
2022/12/17 13:26:13;;;;;;;;;;;5.00;99.90;;;;;;5018278;28;20011;-58
2022/12/17 13:28:38;;;;;;;;;;;5.10;99.90;;;;;;5018048;28;19913;-60
2022/12/17 13:31:05;;;;;;;;;;;5.40;99.90;;;;;;5018163;28;19915;-59
2022/12/17 13:33:30;;;;;;;;;;;5.40;99.90;;;;;;5014837;28;19917;-60
2022/12/17 13:36:08;;;;;;;;;;;5.30;99.90;;;;;;5032887;28;19909;-61
2022/12/17 13:38:52;;;;;;;;;;;5.00;99.90;;;;;;5038394;28;19913;-59
2022/12/17 13:41:19;;;;;;;;;;;5.00;99.90;;;;;;5040450;28;20048;-60
2022/12/17 13:43:46;;;;;;;;;;;4.60;99.90;;;;;;5022582;28;19913;-60
2022/12/17 13:46:16;;;;;;;;;;;4.90;99.90;;;;;;5022125;28;19952;-60
2022/12/17 13:48:41;;;;;;;;;;;5.00;99.90;;;;;;5027165;28;19963;-61
2022/12/17 13:51:17;;;;;;;;;;;5.30;99.90;;;;;;5044918;28;19909;-61
2022/12/17 13:53:50;;;;;;;;;;;5.40;99.90;;;;;;5027695;28;19913;-59
2022/12/17 13:56:20;;;;;;;;;;;5.40;99.90;;;;;;5027223;28;20003;-59
2022/12/17 13:58:49;;;;;;;;;;;5.50;99.90;;;;;;5027303;28;19919;-59
2022/12/17 14:01:14;;;;;;;;;;;5.60;99.90;;;;;;5024230;28;20212;-59
2022/12/17 14:03:42;;;;;;;;;;;5.40;99.90;;;;;;5048120;28;20352;-61
2022/12/17 14:06:09;;;;;;;;;;;5.40;99.90;;;;;;5029851;28;19909;-60
2022/12/17 14:08:35;;;;;;;;;;;5.40;99.90;;;;;;5032858;28;19940;-59
2022/12/17 14:13:47;;;;;;;;;;;5.20;99.90;;;;;;5048559;28;19915;-59
2022/12/17 14:16:16;;;;;;;;;;;5.10;99.90;;;;;;5031621;28;19915;-58
2022/12/17 14:18:43;;;;;;;;;;;5.20;99.90;;;;;;5031057;28;19951;-60
2022/12/17 14:21:09;;;;;;;;;;;5.40;99.90;;;;;;5042811;28;19973;-59
2022/12/17 14:23:35;;;;;;;;;;;5.20;99.90;;;;;;5040140;28;20065;-59
2022/12/17 14:26:00;;;;;;;;;;;5.10;99.90;;;;;;5021073;28;20008;-57
2022/12/17 14:28:31;;;;;;;;;;;4.90;99.90;;;;;;5041274;28;20293;-61
2022/12/17 14:31:08;;;;;;;;;;;4.90;99.90;;;;;;5023220;28;20185;-59
2022/12/17 14:33:34;;;;;;;;;;;4.80;99.90;;;;;;5038424;28;19909;-58
2022/12/17 14:36:03;;;;;;;;;;;4.10;99.90;;;;;;5039492;28;20057;-56
2022/12/17 14:38:29;;;;;;;;;;;3.70;99.90;;;;;;5024503;28;20134;-60
2022/12/17 14:40:59;;;;;;;;;;;3.50;99.90;;;;;;5041000;28;20193;-57
2022/12/17 14:43:27;;;;;;;;;;;3.30;99.90;;;;;;5023545;28;20317;-58
2022/12/17 14:49:02;;;;;;;;;;;3.10;99.90;;;;;;5037039;28;20594;-59
2022/12/17 14:51:35;;;;;;;;;;;3.30;99.90;;;;;;5020827;28;19913;-59
2022/12/17 14:54:05;;;;;;;;;;;3.20;99.90;;;;;;5019755;28;19916;-59
2022/12/17 14:56:30;;;;;;;;;;;3.20;99.90;;;;;;5017911;28;20515;-58
2022/12/17 14:58:56;;;;;;;;;;;3.20;99.90;;;;;;5018600;28;19909;-58
2022/12/17 15:01:21;;;;;;;;;;;3.30;99.90;;;;;;5021920;28;19933;-57
2022/12/17 15:03:47;;;;;;;;;;;3.30;99.90;;;;;;5019833;28;20191;-59
2022/12/17 15:06:16;;;;;;;;;;;3.10;99.90;;;;;;5034623;28;20025;-59
2022/12/17 15:08:44;;;;;;;;;;;3.10;99.90;;;;;;5021242;28;20113;-59
2022/12/17 15:11:10;;;;;;;;;;;3.20;99.90;;;;;;5039345;28;20087;-58
2022/12/17 15:13:36;;;;;;;;;;;3.00;99.90;;;;;;5038551;28;19909;-58
2022/12/17 15:16:01;;;;;;;;;;;3.00;99.90;;;;;;5038949;28;20073;-58
2022/12/17 15:18:27;;;;;;;;;;;2.80;99.90;;;;;;5038377;28;20043;-59
2022/12/17 15:20:52;;;;;;;;;;;2.60;99.90;;;;;;5039106;28;19915;-60
2022/12/17 15:23:20;;;;;;;;;;;2.50;99.90;;;;;;5038561;28;20222;-59
2022/12/17 15:25:47;;;;;;;;;;;2.40;99.90;;;;;;5057210;28;19913;-55
2022/12/17 15:28:12;;;;;;;;;;;2.40;99.90;;;;;;5037116;28;19908;-57
2022/12/17 15:30:38;;;;;;;;;;;2.20;99.90;;;;;;5038556;28;20072;-59
2022/12/17 15:33:08;;;;;;;;;;;2.20;99.90;;;;;;5039970;28;19908;-60
2022/12/17 15:35:34;;;;;;;;;;;2.30;99.90;;;;;;5059608;28;20239;-59
2022/12/17 15:38:00;;;;;;;;;;;2.10;99.90;;;;;;5041090;28;20260;-58
2022/12/17 15:40:25;;;;;;;;;;;2.10;99.90;;;;;;5042716;28;19917;-58
2022/12/17 15:45:35;;;;;;;;;;;2.00;99.90;;;;;;5063632;28;20094;-58
2022/12/17 15:48:01;;;;;;;;;;;2.00;99.90;;;;;;5066441;28;19908;-60
2022/12/17 15:50:27;;;;;;;;;;;2.00;99.90;;;;;;5047002;28;19908;-58
2022/12/17 15:52:52;;;;;;;;;;;2.10;99.90;;;;;;5045399;28;20087;-59
2022/12/17 15:55:18;;;;;;;;;;;2.10;99.90;;;;;;5064000;28;19912;-60
2022/12/17 15:57:43;;;;;;;;;;;2.20;99.90;;;;;;5045218;28;20165;-60
2022/12/17 16:00:10;;;;;;;;;;;2.10;99.90;;;;;;5044823;28;19931;-60
2022/12/17 16:02:35;;;;;;;;;;;2.20;99.90;;;;;;5043624;28;20131;-58
2022/12/17 16:05:01;;;;;;;;;;;2.20;99.90;;;;;;5043032;28;20210;-59
2022/12/17 16:07:26;;;;;;;;;;;2.20;99.90;;;;;;5043942;28;20122;-60
2022/12/17 16:09:51;;;;;;;;;;;2.10;99.90;;;;;;5042695;28;19931;-60
2022/12/17 16:12:17;;;;;;;;;;;2.00;99.90;;;;;;5040284;28;19909;-58
2022/12/17 16:14:42;;;;;;;;;;;2.00;99.90;;;;;;5042144;28;19908;-61
2022/12/17 16:17:08;;;;;;;;;;;2.10;99.90;;;;;;5059043;28;20062;-61
2022/12/17 16:19:33;;;;;;;;;;;2.10;99.90;;;;;;5041783;28;20080;-60
2022/12/17 16:21:59;;;;;;;;;;;1.90;99.90;;;;;;5041313;28;20003;-58
2022/12/17 16:24:24;;;;;;;;;;;1.80;99.90;;;;;;5041521;28;19966;-56
2022/12/17 16:26:50;;;;;;;;;;;1.70;99.90;;;;;;5043128;28;19913;-58
2022/12/17 16:29:15;;;;;;;;;;;1.60;99.90;;;;;;5038952;28;19916;-57
2022/12/17 16:31:41;;;;;;;;;;;1.50;99.90;;;;;;5044216;28;19913;-59
2022/12/17 16:34:10;;;;;;;;;;;1.40;99.90;;;;;;5063043;28;20215;-59
2022/12/17 16:36:36;;;;;;;;;;;1.40;99.90;;;;;;5042233;28;19912;-60
2022/12/17 16:39:02;;;;;;;;;;;1.30;99.90;;;;;;5039527;28;20135;-61
2022/12/17 16:41:27;;;;;;;;;;;1.30;99.90;;;;;;5039664;28;19916;-69
2022/12/17 16:43:53;;;;;;;;;;;1.20;99.90;;;;;;5056820;28;19958;-60
2022/12/17 16:46:25;;;;;;;;;;;1.30;99.90;;;;;;5036297;28;20063;-58
2022/12/17 16:48:51;;;;;;;;;;;1.30;99.90;;;;;;5037173;28;19913;-58
2022/12/17 16:51:17;;;;;;;;;;;1.20;99.90;;;;;;5038026;28;19913;-58
2022/12/17 16:53:43;;;;;;;;;;;1.30;99.90;;;;;;5056452;28;20027;-56
2022/12/17 16:56:14;;;;;;;;;;;1.40;99.90;;;;;;5059231;28;20259;-57
2022/12/17 16:58:39;;;;;;;;;;;1.50;99.90;;;;;;5062437;28;19909;-58
2022/12/17 17:01:05;;;;;;;;;;;1.50;99.90;;;;;;5047534;28;20188;-58
2022/12/17 17:03:33;;;;;;;;;;;1.50;99.90;;;;;;5047474;28;20161;-57
2022/12/17 17:06:02;;;;;;;;;;;1.50;99.90;;;;;;5064092;28;19908;-58
2022/12/17 17:08:30;;;;;;;;;;;1.50;99.90;;;;;;5044554;28;19934;-58
2022/12/17 17:10:57;;;;;;;;;;;1.40;99.90;;;;;;5026104;28;20043;-57
2022/12/17 17:13:26;;;;;;;;;;;1.40;99.90;;;;;;5027491;28;19909;-58
2022/12/17 17:15:54;;;;;;;;;;;1.30;99.90;;;;;;5046522;28;19912;-59
2022/12/17 17:18:22;;;;;;;;;;;1.20;99.90;;;;;;5047019;28;19908;-58
2022/12/17 17:20:49;;;;;;;;;;;1.20;99.90;;;;;;5051016;28;19944;-59
2022/12/17 17:23:17;;;;;;;;;;;1.20;99.90;;;;;;5035993;28;20088;-59
2022/12/17 17:25:45;;;;;;;;;;;1.00;99.90;;;;;;5037042;28;19924;-58
2022/12/17 17:28:12;;;;;;;;;;;1.00;99.90;;;;;;5036402;28;20012;-57
2022/12/17 17:30:40;;;;;;;;;;;1.00;99.90;;;;;;5052882;28;19920;-59
2022/12/17 17:33:08;;;;;;;;;;;1.00;99.90;;;;;;5051932;28;19909;-58
2022/12/17 17:35:35;;;;;;;;;;;1.00;99.90;;;;;;5053231;28;19917;-59
2022/12/17 17:38:03;;;;;;;;;;;1.10;99.90;;;;;;5037487;28;19917;-59
2022/12/17 17:40:31;;;;;;;;;;;1.00;99.90;;;;;;5035619;28;20167;-59
2022/12/17 17:42:58;;;;;;;;;;;0.90;99.90;;;;;;5035413;28;19909;-59
2022/12/17 17:45:25;;;;;;;;;;;0.90;99.90;;;;;;5051020;28;19974;-58
2022/12/17 17:47:52;;;;;;;;;;;0.80;99.90;;;;;;5033267;28;19909;-58
2022/12/17 17:50:27;;;;;;;;;;;0.70;99.90;;;;;;5034571;28;19913;-58
2022/12/17 17:52:55;;;;;;;;;;;0.70;99.90;;;;;;5035925;28;19972;-58
2022/12/17 17:55:23;;;;;;;;;;;0.70;99.90;;;;;;5034109;28;20217;-55
2022/12/17 17:57:50;;;;;;;;;;;0.60;99.90;;;;;;5033868;28;19909;-58
2022/12/17 18:00:17;;;;;;;;;;;0.60;99.90;;;;;;5033615;28;19909;-59
2022/12/17 18:02:45;;;;;;;;;;;0.70;99.90;;;;;;5031106;28;20258;-59
2022/12/17 18:05:12;;;;;;;;;;;0.70;99.90;;;;;;5031401;28;19999;-58
2022/12/17 18:07:40;;;;;;;;;;;0.70;99.90;;;;;;5028364;28;19916;-58
2022/12/17 18:10:08;;;;;;;;;;;0.70;99.90;;;;;;5044611;28;20039;-59
2022/12/17 18:15:21;;;;;;;;;;;0.70;99.90;;;;;;5067098;28;19935;-58
2022/12/17 18:17:52;;;;;;;;;;;0.80;99.90;;;;;;5048857;28;19940;-57
2022/12/17 18:20:20;;;;;;;;;;;0.80;99.90;;;;;;5047192;28;19988;-57
2022/12/17 18:22:49;;;;;;;;;;;0.70;99.90;;;;;;5048706;28;19924;-58
2022/12/17 18:25:18;;;;;;;;;;;0.80;99.90;;;;;;5050780;28;20304;-59
2022/12/17 18:27:45;;;;;;;;;;;0.70;99.90;;;;;;5067702;28;19919;-59
2022/12/17 18:30:15;;;;;;;;;;;0.80;99.90;;;;;;5066584;28;19924;-58
2022/12/17 18:32:43;;;;;;;;;;;0.70;99.90;;;;;;5050585;28;19937;-59
2022/12/17 18:35:11;;;;;;;;;;;0.60;99.90;;;;;;5065780;28;20015;-58
2022/12/17 18:37:39;;;;;;;;;;;0.40;99.90;;;;;;5067462;28;19982;-56
2022/12/17 18:40:07;;;;;;;;;;;0.30;99.90;;;;;;5051507;28;19923;-59
2022/12/17 18:45:19;;;;;;;;;;;0.30;99.90;;;;;;5072480;28;19943;-60
2022/12/17 18:47:52;;;;;;;;;;;0.30;99.90;;;;;;5054538;28;20011;-59
2022/12/17 18:50:19;;;;;;;;;;;0.20;99.90;;;;;;5053707;28;20307;-55
2022/12/17 18:52:48;;;;;;;;;;;0.30;99.90;;;;;;5071754;28;19912;-58
2022/12/17 18:55:16;;;;;;;;;;;0.30;99.90;;;;;;5073126;28;19920;-59
2022/12/17 18:57:44;;;;;;;;;;;0.40;99.90;;;;;;5054912;28;20257;-55
2022/12/17 19:00:11;;;;;;;;;;;0.40;99.90;;;;;;5054733;28;19909;-59
2022/12/17 19:02:39;;;;;;;;;;;0.30;99.90;;;;;;5072197;28;19996;-60
2022/12/17 19:05:07;;;;;;;;;;;0.30;99.90;;;;;;5054904;28;19962;-55
2022/12/17 19:07:35;;;;;;;;;;;0.30;99.90;;;;;;5054313;28;19924;-56
2022/12/17 19:10:02;;;;;;;;;;;0.10;99.90;;;;;;5053414;28;19925;-59
2022/12/17 19:12:30;;;;;;;;;;;0.00;99.90;;;;;;5054691;28;19919;-56
2022/12/17 19:14:58;;;;;;;;;;;-0.10;99.90;;;;;;5052559;28;19916;-59
2022/12/17 19:17:26;;;;;;;;;;;-0.20;99.90;;;;;;5072412;28;20256;-60
2022/12/17 19:19:54;;;;;;;;;;;-0.10;99.90;;;;;;5071414;28;19915;-58
2022/12/17 19:22:22;;;;;;;;;;;-0.10;99.90;;;;;;5054532;28;20003;-60
2022/12/17 19:24:50;;;;;;;;;;;-0.10;99.90;;;;;;5072345;28;20352;-58
2022/12/17 19:27:17;;;;;;;;;;;-0.10;99.90;;;;;;5056160;28;19974;-58
2022/12/17 19:29:45;;;;;;;;;;;0.00;99.90;;;;;;5056173;28;20015;-60
2022/12/17 19:32:13;;;;;;;;;;;0.00;99.90;;;;;;5055822;28;20404;-60
2022/12/17 19:34:41;;;;;;;;;;;0.00;99.90;;;;;;5053199;28;20156;-59
2022/12/17 19:37:09;;;;;;;;;;;0.00;99.90;;;;;;5052145;28;19913;-60
2022/12/17 19:39:37;;;;;;;;;;;0.00;99.90;;;;;;5052708;28;19912;-59
2022/12/17 19:42:23;;;;;;;;;;;0.00;99.90;;;;;;5069708;28;20239;-59
2022/12/17 19:44:54;;;;;;;;;;;-0.10;99.90;;;;;;5050532;28;19909;-59
2022/12/17 19:47:29;;;;;;;;;;;-0.20;99.90;;;;;;5049025;28;20202;-58
2022/12/17 19:49:57;;;;;;;;;;;-0.30;99.90;;;;;;5069518;28;19955;-60
2022/12/17 19:52:25;;;;;;;;;;;-0.30;99.90;;;;;;5049911;28;19916;-58
2022/12/17 19:54:53;;;;;;;;;;;-0.20;99.90;;;;;;5068743;28;20223;-58
2022/12/17 19:57:20;;;;;;;;;;;-0.10;99.90;;;;;;5053411;28;19909;-59
2022/12/17 19:59:48;;;;;;;;;;;-0.20;99.90;;;;;;5069554;28;19909;-57
2022/12/17 20:02:19;;;;;;;;;;;-0.20;99.90;;;;;;5051061;28;19920;-59
2022/12/17 20:04:46;;;;;;;;;;;-0.30;99.90;;;;;;5048652;28;20204;-59
2022/12/17 20:07:14;;;;;;;;;;;-0.30;99.90;;;;;;5064258;28;20389;-59
2022/12/17 20:09:46;;;;;;;;;;;-0.40;99.90;;;;;;5045385;28;20323;-59
2022/12/17 20:12:14;;;;;;;;;;;-0.30;99.90;;;;;;5064206;28;19913;-59
2022/12/17 20:14:42;;;;;;;;;;;-0.40;99.90;;;;;;5048479;28;19923;-56
2022/12/17 20:17:11;;;;;;;;;;;-0.40;99.90;;;;;;5049455;28;19915;-57
2022/12/17 20:19:38;;;;;;;;;;;-0.50;99.90;;;;;;5049380;28;19908;-59
2022/12/17 20:22:06;;;;;;;;;;;-0.40;99.90;;;;;;5066162;28;19915;-59
2022/12/17 20:24:36;;;;;;;;;;;-0.40;99.90;;;;;;5049377;28;19916;-59
2022/12/17 20:27:03;;;;;;;;;;;-0.40;99.90;;;;;;5066641;28;19916;-58
2022/12/17 20:29:30;;;;;;;;;;;-0.40;99.90;;;;;;5050316;28;19912;-58
2022/12/17 20:31:57;;;;;;;;;;;-0.50;99.90;;;;;;5048321;28;19984;-58
2022/12/17 20:34:24;;;;;;;;;;;-0.60;99.90;;;;;;5066169;28;19935;-59
2022/12/17 20:36:53;;;;;;;;;;;-0.80;99.90;;;;;;5068627;28;19916;-59
2022/12/17 20:39:21;;;;;;;;;;;-0.70;99.90;;;;;;5052066;28;19916;-61
2022/12/17 20:41:50;;;;;;;;;;;-0.70;99.90;;;;;;5050825;28;19908;-60
2022/12/17 20:44:18;;;;;;;;;;;-0.70;99.90;;;;;;5051750;28;19916;-60
2022/12/17 20:46:48;;;;;;;;;;;-0.70;99.90;;;;;;5051688;28;19967;-59
2022/12/17 20:49:16;;;;;;;;;;;-0.80;99.90;;;;;;5052104;28;20377;-58
2022/12/17 20:51:45;;;;;;;;;;;-0.70;99.90;;;;;;5051270;28;19908;-62
2022/12/17 20:54:12;;;;;;;;;;;-0.70;99.90;;;;;;5052043;28;19923;-61
2022/12/17 20:56:41;;;;;;;;;;;-0.70;99.90;;;;;;5052904;28;19908;-62
2022/12/17 20:59:12;;;;;;;;;;;-0.70;99.90;;;;;;5051230;28;19919;-62
2022/12/17 21:01:39;;;;;;;;;;;-0.70;99.90;;;;;;5051263;28;19909;-62
2022/12/17 21:04:07;;;;;;;;;;;-0.70;99.90;;;;;;5070197;28;19935;-62
2022/12/17 21:06:39;;;;;;;;;;;-0.80;99.90;;;;;;5071065;28;19908;-62
2022/12/17 21:09:07;;;;;;;;;;;-0.80;99.90;;;;;;5054325;28;19972;-59
2022/12/17 21:11:35;;;;;;;;;;;-0.80;99.90;;;;;;5054117;28;19998;-58
2022/12/17 21:14:05;;;;;;;;;;;-0.90;99.90;;;;;;5053607;28;19952;-60
2022/12/17 21:16:33;;;;;;;;;;;-0.90;99.90;;;;;;5072073;28;19916;-60
2022/12/17 21:19:01;;;;;;;;;;;-0.90;99.90;;;;;;5054286;28;19971;-60
2022/12/17 21:21:31;;;;;;;;;;;-0.90;99.90;;;;;;5071627;28;19912;-60
2022/12/17 21:23:57;;;;;;;;;;;-0.90;99.90;;;;;;5053711;28;19912;-60
2022/12/17 21:26:24;;;;;;;;;;;-0.90;99.90;;;;;;5052900;28;20085;-58
2022/12/17 21:28:51;;;;;;;;;;;-0.90;99.90;;;;;;5054430;28;19967;-61
2022/12/17 21:31:21;;;;;;;;;;;-0.90;99.90;;;;;;5052021;28;19908;-61
2022/12/17 21:33:47;;;;;;;;;;;-0.90;99.90;;;;;;5051543;28;19909;-61
2022/12/17 21:36:13;;;;;;;;;;;-0.90;99.90;;;;;;5050580;28;19912;-59
2022/12/17 21:38:38;;;;;;;;;;;-0.90;99.90;;;;;;5067212;28;20414;-60
2022/12/17 21:41:14;;;;;;;;;;;-0.90;99.90;;;;;;5068057;28;19955;-61
2022/12/17 21:43:40;;;;;;;;;;;-0.90;99.90;;;;;;5049926;28;19971;-61
2022/12/17 21:46:07;;;;;;;;;;;-1.00;99.90;;;;;;5052680;28;19922;-61
2022/12/17 21:48:33;;;;;;;;;;;-1.10;99.90;;;;;;5071475;28;19916;-61
2022/12/17 21:50:58;;;;;;;;;;;-1.10;99.90;;;;;;5052981;28;19909;-61
2022/12/17 21:53:24;;;;;;;;;;;-1.10;99.90;;;;;;5050212;28;19912;-60
2022/12/17 21:55:49;;;;;;;;;;;-1.10;99.90;;;;;;5051372;28;20203;-58
2022/12/17 21:58:15;;;;;;;;;;;-1.40;99.90;;;;;;5052386;28;20594;-60
2022/12/17 22:00:41;;;;;;;;;;;-1.30;99.90;;;;;;5051323;28;19917;-60
2022/12/17 22:03:07;;;;;;;;;;;-1.30;99.90;;;;;;5052919;28;19908;-60
2022/12/17 22:05:34;;;;;;;;;;;-1.40;99.90;;;;;;5053678;28;20328;-60
2022/12/17 22:08:00;;;;;;;;;;;-1.40;99.90;;;;;;5054294;28;19912;-60
2022/12/17 22:10:25;;;;;;;;;;;-1.40;99.90;;;;;;5058038;28;19936;-61
2022/12/17 22:15:37;;;;;;;;;;;-1.40;99.90;;;;;;5076069;28;19970;-60
2022/12/17 22:18:02;;;;;;;;;;;-1.40;99.90;;;;;;5058108;28;20007;-61
2022/12/17 22:20:28;;;;;;;;;;;-1.40;99.90;;;;;;5057977;28;20011;-61
2022/12/17 22:22:53;;;;;;;;;;;-1.40;99.90;;;;;;5057261;28;20304;-61
2022/12/17 22:25:19;;;;;;;;;;;-1.40;99.90;;;;;;5054003;28;19919;-61
2022/12/17 22:27:44;;;;;;;;;;;-1.40;99.90;;;;;;5056333;28;19908;-62
2022/12/17 22:32:59;;;;;;;;;;;-1.50;99.90;;;;;;5072379;28;19919;-59
2022/12/17 22:35:26;;;;;;;;;;;-1.50;99.90;;;;;;5053601;28;19916;-61
2022/12/17 22:37:52;;;;;;;;;;;-1.50;99.90;;;;;;5053551;28;19909;-61
2022/12/17 22:40:19;;;;;;;;;;;-1.50;99.90;;;;;;5054474;28;19917;-61
2022/12/17 22:45:28;;;;;;;;;;;-1.40;99.90;;;;;;5070909;28;19918;-63
2022/12/17 22:47:54;;;;;;;;;;;-1.40;99.90;;;;;;5052382;28;19908;-61
2022/12/17 22:50:19;;;;;;;;;;;-1.40;99.90;;;;;;5070812;28;19923;-60
2022/12/17 22:52:45;;;;;;;;;;;-1.60;99.90;;;;;;5053253;28;20284;-61
2022/12/17 22:55:12;;;;;;;;;;;-1.50;99.90;;;;;;5052474;28;20216;-61
2022/12/17 22:57:37;;;;;;;;;;;-1.50;99.90;;;;;;5052839;28;19915;-61
2022/12/17 23:00:09;;;;;;;;;;;-1.50;99.90;;;;;;5053166;28;19916;-61
2022/12/17 23:02:34;;;;;;;;;;;-1.50;99.90;;;;;;5049052;28;20373;-60
2022/12/17 23:04:59;;;;;;;;;;;-1.50;99.90;;;;;;5052790;28;20430;-61
2022/12/17 23:07:25;;;;;;;;;;;-1.50;99.90;;;;;;5069387;28;19916;-60
2022/12/17 23:09:50;;;;;;;;;;;-1.50;99.90;;;;;;5054417;28;19932;-60
2022/12/17 23:15:00;;;;;;;;;;;-1.50;99.90;;;;;;5044813;28;19935;-60
2022/12/17 23:17:25;;;;;;;;;;;-1.50;99.90;;;;;;5028122;28;20422;-60
2022/12/17 23:19:54;;;;;;;;;;;-1.60;99.90;;;;;;5028448;28;19979;-59
2022/12/17 23:22:20;;;;;;;;;;;-1.60;99.90;;;;;;5029610;28;19923;-61
2022/12/17 23:24:45;;;;;;;;;;;-1.60;99.90;;;;;;5048358;28;19913;-61
2022/12/17 23:27:10;;;;;;;;;;;-1.70;99.90;;;;;;5031540;28;19977;-61
2022/12/17 23:29:36;;;;;;;;;;;-1.70;99.90;;;;;;5031206;28;20259;-61
2022/12/17 23:32:01;;;;;;;;;;;-1.80;99.90;;;;;;5031959;28;19995;-61
2022/12/17 23:34:27;;;;;;;;;;;-1.80;99.90;;;;;;5033051;28;20200;-61
2022/12/17 23:36:52;;;;;;;;;;;-1.80;99.90;;;;;;5032606;28;19917;-61
2022/12/17 23:39:18;;;;;;;;;;;-1.80;99.90;;;;;;5051050;28;19913;-61
2022/12/17 23:41:43;;;;;;;;;;;-1.80;99.90;;;;;;5034700;28;20379;-61
2022/12/17 23:44:09;;;;;;;;;;;-1.80;99.90;;;;;;5034714;28;19908;-61
2022/12/17 23:46:34;;;;;;;;;;;-2.00;99.90;;;;;;5035623;28;19919;-61
2022/12/17 23:49:02;;;;;;;;;;;-1.90;99.90;;;;;;5034512;28;19920;-61
2022/12/17 23:51:28;;;;;;;;;;;-2.00;99.90;;;;;;5053597;28;19920;-61
2022/12/17 23:53:53;;;;;;;;;;;-2.00;99.90;;;;;;5035564;28;19925;-61
2022/12/17 23:56:23;;;;;;;;;;;-2.10;99.90;;;;;;5053248;28;20273;-61
2022/12/17 23:58:51;;;;;;;;;;;-2.10;99.90;;;;;;5036330;28;20332;-61
